Time;durP1;ratioP1;P1;durP2;ratioP2;P2;SDS_P1;SDS_P2;PMS_P1;PMS_P2;Temp;Humidity;BMP_temperature;BMP_pressure;BME280_temperature;BME280_humidity;BME280_pressure;Samples;Min_cycle;Max_cycle;Signal;HPM_P1;HPM_P2
2023/07/12 00:01:19;;;;;;;7.03;3.30;;;19.20;99.90;;;;;;5076462;28;20492;-58
2023/07/12 00:03:44;;;;;;;7.03;3.25;;;19.20;99.90;;;;;;5077239;28;20045;-57
2023/07/12 00:06:26;;;;;;;6.15;2.85;;;19.00;99.90;;;;;;5077075;28;20104;-57
2023/07/12 00:08:52;;;;;;;7.60;3.15;;;19.10;99.90;;;;;;5076361;28;20040;-58
2023/07/12 00:11:21;;;;;;;7.45;3.45;;;19.00;99.90;;;;;;5077393;28;20109;-58
2023/07/12 00:13:47;;;;;;;7.82;3.50;;;19.00;99.90;;;;;;5074712;28;20059;-58
2023/07/12 00:16:24;;;;;;;7.20;2.95;;;19.00;99.90;;;;;;5077395;28;20051;-57
2023/07/12 00:18:50;;;;;;;6.50;3.10;;;19.00;99.90;;;;;;5076519;28;20083;-57
2023/07/12 00:21:22;;;;;;;7.93;3.50;;;19.00;99.90;;;;;;5077178;28;20041;-58
2023/07/12 00:24:00;;;;;;;8.57;3.40;;;19.00;99.90;;;;;;5077074;28;20050;-58
2023/07/12 00:26:31;;;;;;;6.93;3.10;;;19.00;99.90;;;;;;5068321;28;20057;-57
2023/07/12 00:28:58;;;;;;;8.45;3.63;;;19.00;99.90;;;;;;5058757;28;20036;-57
2023/07/12 00:31:24;;;;;;;6.70;3.50;;;19.00;99.90;;;;;;5075892;28;20051;-58
2023/07/12 00:33:50;;;;;;;6.05;3.33;;;18.90;99.90;;;;;;5077169;28;20075;-58
2023/07/12 00:36:22;;;;;;;7.30;3.65;;;18.90;99.90;;;;;;5077462;28;20044;-57
2023/07/12 00:38:49;;;;;;;10.40;4.28;;;18.90;99.90;;;;;;5079957;28;20048;-57
2023/07/12 00:41:36;;;;;;;6.45;3.40;;;18.80;99.90;;;;;;5081014;28;20474;-60
2023/07/12 00:44:13;;;;;;;8.13;3.40;;;18.70;99.90;;;;;;5079340;28;20075;-57
2023/07/12 00:46:42;;;;;;;7.10;3.58;;;18.70;99.90;;;;;;5079228;28;20047;-58
2023/07/12 00:49:11;;;;;;;7.95;3.88;;;18.70;99.90;;;;;;5080372;28;20044;-57
2023/07/12 00:51:53;;;;;;;6.43;3.45;;;18.70;99.90;;;;;;5079072;28;20678;-58
2023/07/12 00:54:23;;;;;;;8.68;3.75;;;18.70;99.90;;;;;;5080807;28;20033;-57
2023/07/12 00:56:48;;;;;;;8.10;3.85;;;18.70;99.90;;;;;;5079378;28;20041;-58
2023/07/12 00:59:24;;;;;;;7.47;4.03;;;18.60;99.90;;;;;;5080404;28;20195;-57
2023/07/12 01:01:59;;;;;;;7.72;3.78;;;18.60;99.90;;;;;;5080204;28;20054;-57
2023/07/12 01:04:28;;;;;;;7.22;3.50;;;18.60;99.90;;;;;;5080059;28;20045;-58
2023/07/12 01:06:54;;;;;;;10.70;3.75;;;18.50;99.90;;;;;;5080732;28;20040;-57
2023/07/12 01:09:21;;;;;;;8.60;3.58;;;18.40;99.90;;;;;;5079403;28;20427;-58
2023/07/12 01:11:48;;;;;;;7.32;3.72;;;18.40;99.90;;;;;;5080730;28;20028;-58
2023/07/12 01:14:17;;;;;;;7.30;3.50;;;18.40;99.90;;;;;;5079629;28;20083;-57
2023/07/12 01:16:48;;;;;;;8.30;4.05;;;18.40;99.90;;;;;;5080664;28;20045;-58
2023/07/12 01:19:14;;;;;;;;;;;18.30;99.90;;;;;;5080870;28;20060;-57
2023/07/12 01:21:45;;;;;;;7.50;4.03;;;18.30;99.90;;;;;;5079754;28;19924;-58
2023/07/12 01:24:13;;;;;;;7.88;3.38;;;18.30;99.90;;;;;;5080553;28;20070;-58
2023/07/12 01:26:47;;;;;;;7.75;3.70;;;18.30;99.90;;;;;;5078759;28;20056;-57
2023/07/12 01:29:14;;;;;;;8.73;3.63;;;18.20;99.90;;;;;;5080360;28;20041;-58
2023/07/12 01:31:41;;;;;;;9.35;3.80;;;18.10;99.90;;;;;;5079175;28;20040;-57
2023/07/12 01:34:08;;;;;;;7.55;3.58;;;18.20;99.90;;;;;;5078310;28;20119;-58
2023/07/12 01:36:34;;;;;;;7.88;4.18;;;18.20;99.90;;;;;;5080056;28;20037;-57
2023/07/12 01:39:02;;;;;;;8.02;4.05;;;18.10;99.90;;;;;;5079060;28;20048;-57
2023/07/12 01:41:27;;;;;;;8.02;4.00;;;18.10;99.90;;;;;;5079875;28;20036;-57
2023/07/12 01:43:53;;;;;;;7.80;3.70;;;18.00;99.90;;;;;;5078803;28;20047;-57
2023/07/12 01:46:20;;;;;;;7.32;3.60;;;18.00;99.90;;;;;;5080165;28;20251;-57
2023/07/12 01:48:46;;;;;;;8.13;3.90;;;18.10;99.90;;;;;;5078547;28;20041;-56
2023/07/12 01:51:12;;;;;;;7.97;4.28;;;18.10;99.90;;;;;;5078838;28;20032;-57
2023/07/12 01:53:38;;;;;;;7.03;3.63;;;18.00;99.90;;;;;;5077539;28;20087;-57
2023/07/12 01:56:05;;;;;;;10.13;3.50;;;18.00;99.90;;;;;;5078570;28;20048;-57
2023/07/12 01:58:32;;;;;;;9.77;4.18;;;18.00;99.90;;;;;;5078015;28;20399;-58
2023/07/12 02:00:58;;;;;;;9.02;3.42;;;18.00;99.90;;;;;;5076746;28;20033;-58
2023/07/12 02:03:25;;;;;;;10.90;4.13;;;18.00;99.90;;;;;;5079533;28;20036;-58
2023/07/12 02:05:51;;;;;;;11.30;4.30;;;17.90;99.90;;;;;;5078413;28;20486;-57
2023/07/12 02:08:16;;;;;;;10.02;3.90;;;18.00;99.90;;;;;;5078712;28;20096;-58
2023/07/12 02:10:42;;;;;;;10.63;3.97;;;17.90;99.90;;;;;;5078974;28;20131;-57
2023/07/12 02:13:08;;;;;;;11.50;4.20;;;17.90;99.90;;;;;;5078197;28;20097;-57
2023/07/12 02:15:34;;;;;;;9.43;4.18;;;17.80;99.90;;;;;;5079171;28;20092;-57
2023/07/12 02:18:01;;;;;;;8.77;4.25;;;17.90;99.90;;;;;;5077484;28;20049;-57
2023/07/12 02:20:27;;;;;;;9.07;4.57;;;17.80;99.90;;;;;;5078937;28;20055;-58
2023/07/12 02:22:52;;;;;;;9.30;4.53;;;17.70;99.90;;;;;;5077950;28;20115;-57
2023/07/12 02:25:20;;;;;;;10.75;4.43;;;17.70;99.90;;;;;;5078617;28;20044;-57
2023/07/12 02:27:46;;;;;;;9.93;3.70;;;17.70;99.90;;;;;;5078771;28;20081;-57
2023/07/12 02:30:21;;;;;;;11.93;4.10;;;17.70;99.90;;;;;;5077994;28;20044;-57
2023/07/12 02:32:48;;;;;;;9.55;4.18;;;17.60;99.90;;;;;;5078917;28;20407;-58
2023/07/12 02:35:15;;;;;;;16.33;4.68;;;17.70;99.90;;;;;;5075856;28;20032;-58
2023/07/12 02:37:40;;;;;;;10.20;4.18;;;17.70;99.90;;;;;;5078445;28;20490;-58
2023/07/12 02:40:08;;;;;;;10.82;4.05;;;17.80;99.90;;;;;;5077787;28;20062;-58
2023/07/12 02:42:34;;;;;;;9.48;4.30;;;17.80;99.90;;;;;;5078269;28;20044;-58
2023/07/12 02:44:59;;;;;;;11.57;4.38;;;17.80;99.90;;;;;;5078814;28;20047;-57
2023/07/12 02:47:25;;;;;;;8.80;3.80;;;17.90;99.90;;;;;;5077777;28;20479;-55
2023/07/12 02:49:51;;;;;;;9.32;4.00;;;17.80;99.90;;;;;;5078503;28;20044;-59
2023/07/12 02:52:17;;;;;;;14.20;5.10;;;17.70;99.90;;;;;;5077390;28;20059;-61
2023/07/12 02:54:42;;;;;;;10.50;4.15;;;17.70;99.90;;;;;;5079130;28;20043;-62
2023/07/12 02:57:13;;;;;;;10.00;4.10;;;17.70;99.90;;;;;;5077741;28;20049;-61
2023/07/12 02:59:39;;;;;;;15.65;5.10;;;17.70;99.90;;;;;;5077995;28;20052;-60
2023/07/12 03:02:10;;;;;;;10.20;4.65;;;17.60;99.90;;;;;;5078503;28;20044;-58
2023/07/12 03:04:36;;;;;;;11.52;4.30;;;17.50;99.90;;;;;;5077892;28;20037;-59
2023/07/12 03:07:02;;;;;;;11.82;4.60;;;17.50;99.90;;;;;;5078228;28;20055;-59
2023/07/12 03:09:28;;;;;;;10.50;4.35;;;17.40;99.90;;;;;;5077244;28;20040;-59
2023/07/12 03:11:53;;;;;;;14.32;5.18;;;17.30;99.90;;;;;;5078745;28;20047;-58
2023/07/12 03:14:20;;;;;;;11.15;4.38;;;17.30;99.90;;;;;;5077883;28;20044;-59
2023/07/12 03:16:47;;;;;;;14.52;5.10;;;17.40;99.90;;;;;;5078003;28;20052;-59
2023/07/12 03:19:14;;;;;;;12.00;4.72;;;17.30;99.90;;;;;;5078341;28;20416;-59
2023/07/12 03:21:40;;;;;;;12.27;4.50;;;17.40;99.90;;;;;;5077767;28;20096;-58
2023/07/12 03:24:07;;;;;;;10.77;4.43;;;17.40;99.90;;;;;;5077080;28;20083;-58
2023/07/12 03:26:33;;;;;;;10.48;4.25;;;17.40;99.90;;;;;;5077018;28;20616;-58
2023/07/12 03:28:59;;;;;;;11.68;4.30;;;17.40;99.90;;;;;;5078873;28;20036;-58
2023/07/12 03:31:26;;;;;;;10.25;5.28;;;17.40;99.90;;;;;;5077061;28;20051;-58
2023/07/12 03:33:52;;;;;;;12.90;4.45;;;17.30;99.90;;;;;;5077546;28;20044;-58
2023/07/12 03:36:20;;;;;;;14.05;4.90;;;17.30;99.90;;;;;;5077603;28;20059;-58
2023/07/12 03:38:46;;;;;;;11.30;4.57;;;17.30;99.90;;;;;;5076859;28;20071;-59
2023/07/12 03:41:17;;;;;;;11.73;4.63;;;17.20;99.90;;;;;;5078061;28;20052;-58
2023/07/12 03:43:43;;;;;;;14.98;4.68;;;17.20;99.90;;;;;;5076392;28;20068;-58
2023/07/12 03:46:08;;;;;;;11.13;4.25;;;17.10;99.90;;;;;;5077660;28;20086;-58
2023/07/12 03:48:34;;;;;;;16.52;5.32;;;17.20;99.90;;;;;;5075379;28;20070;-58
2023/07/12 03:51:00;;;;;;;11.55;5.28;;;17.20;99.90;;;;;;5077559;28;20070;-58
2023/07/12 03:53:27;;;;;;;15.25;4.50;;;17.30;99.90;;;;;;5077290;28;20570;-58
2023/07/12 03:56:03;;;;;;;16.40;5.90;;;17.20;99.90;;;;;;5075650;28;20414;-58
2023/07/12 03:58:33;;;;;;;12.45;4.18;;;17.20;99.90;;;;;;5077597;28;20041;-58
2023/07/12 04:01:03;;;;;;;14.75;4.45;;;17.10;99.90;;;;;;5076001;28;20068;-57
2023/07/12 04:03:29;;;;;;;12.77;4.50;;;17.20;99.90;;;;;;5077179;28;20573;-58
2023/07/12 04:05:55;;;;;;;15.57;4.57;;;17.10;99.90;;;;;;5076934;28;20041;-57
2023/07/12 04:08:20;;;;;;;12.13;4.55;;;17.10;99.90;;;;;;5075476;28;20036;-58
2023/07/12 04:10:51;;;;;;;15.45;5.07;;;17.10;99.90;;;;;;5078775;28;20082;-57
2023/07/12 04:13:17;;;;;;;14.70;4.47;;;17.20;99.90;;;;;;5080741;28;20059;-57
2023/07/12 04:15:43;;;;;;;15.93;4.65;;;17.20;99.90;;;;;;5076826;28;20080;-58
2023/07/12 04:18:08;;;;;;;18.70;5.18;;;17.20;99.90;;;;;;5064435;28;20131;-58
2023/07/12 04:20:38;;;;;;;17.20;4.63;;;17.20;99.90;;;;;;5081308;28;20144;-58
2023/07/12 04:23:04;;;;;;;16.60;4.65;;;17.20;99.90;;;;;;5080650;28;20171;-57
2023/07/12 04:25:30;;;;;;;13.80;4.78;;;17.20;99.90;;;;;;5080779;28;20080;-57
2023/07/12 04:27:55;;;;;;;14.75;5.10;;;17.20;99.90;;;;;;5081289;28;20067;-56
2023/07/12 04:30:21;;;;;;;14.45;4.68;;;17.20;99.90;;;;;;5067063;28;20052;-57
2023/07/12 04:32:47;;;;;;;19.30;5.07;;;17.20;99.90;;;;;;5067464;28;20090;-57
2023/07/12 04:35:14;;;;;;;15.27;4.38;;;17.10;99.90;;;;;;5067764;28;20040;-56
2023/07/12 04:37:45;;;;;;;11.93;4.60;;;17.20;99.90;;;;;;5056770;28;20061;-57
2023/07/12 04:40:12;;;;;;;14.10;4.38;;;17.20;99.90;;;;;;5055088;28;20041;-56
2023/07/12 04:42:38;;;;;;;15.27;4.93;;;17.20;99.90;;;;;;5056633;28;20100;-57
2023/07/12 04:45:04;;;;;;;13.68;5.03;;;17.20;99.90;;;;;;5056887;28;20041;-57
2023/07/12 04:47:30;;;;;;;14.15;4.57;;;17.20;99.90;;;;;;5055616;28;20104;-57
2023/07/12 04:49:56;;;;;;;17.55;5.57;;;17.20;99.90;;;;;;5057041;28;20084;-56
2023/07/12 04:52:22;;;;;;;14.55;5.25;;;17.20;99.90;;;;;;5055401;28;20524;-56
2023/07/12 04:54:48;;;;;;;16.67;5.63;;;17.20;99.90;;;;;;5073742;28;20104;-58
2023/07/12 04:57:13;;;;;;;16.13;4.80;;;17.20;99.90;;;;;;5076217;28;20040;-55
2023/07/12 04:59:39;;;;;;;17.67;5.13;;;17.20;99.90;;;;;;5075873;28;20484;-57
2023/07/12 05:02:06;;;;;;;20.60;4.75;;;17.20;99.90;;;;;;5076537;28;20052;-56
2023/07/12 05:04:31;;;;;;;14.88;5.35;;;17.30;99.90;;;;;;5075818;28;20104;-56
2023/07/12 05:06:57;;;;;;;18.45;6.60;;;17.40;99.90;;;;;;5074870;28;20087;-57
2023/07/12 05:09:23;;;;;;;13.57;4.95;;;17.40;99.90;;;;;;5074984;28;20131;-56
2023/07/12 05:11:50;;;;;;;11.82;4.60;;;17.50;99.90;;;;;;5076295;28;20299;-57
2023/07/12 05:14:16;;;;;;;16.02;4.65;;;17.70;99.90;;;;;;5075371;28;20511;-57
2023/07/12 05:16:41;;;;;;;16.73;5.57;;;17.80;99.90;;;;;;5076402;28;20616;-57
2023/07/12 05:19:07;;;;;;;14.50;4.80;;;17.80;99.90;;;;;;5076105;28;20108;-57
2023/07/12 05:21:33;;;;;;;15.75;5.38;;;17.90;99.90;;;;;;5075808;28;20670;-56
2023/07/12 05:23:59;;;;;;;15.77;4.88;;;17.70;99.90;;;;;;5075601;28;20059;-56
2023/07/12 05:26:25;;;;;;;17.15;4.57;;;17.80;99.90;;;;;;5075237;28;20054;-57
2023/07/12 05:28:50;;;;;;;18.80;4.95;;;17.80;99.90;;;;;;5076691;28;20107;-57
2023/07/12 05:31:16;;;;;;;20.02;4.85;;;17.90;99.90;;;;;;5074749;28;20083;-56
2023/07/12 05:33:46;;;;;;;17.02;4.68;;;18.10;99.90;;;;;;5068382;28;20044;-56
2023/07/12 05:36:12;;;;;;;18.05;4.93;;;18.10;99.90;;;;;;5063431;28;20053;-57
2023/07/12 05:38:38;;;;;;;16.05;4.55;;;18.10;99.90;;;;;;5055031;28;20108;-57
2023/07/12 05:41:05;;;;;;;17.63;4.60;;;18.20;99.90;;;;;;5056083;28;20044;-56
2023/07/12 05:43:31;;;;;;;17.35;5.50;;;18.40;99.90;;;;;;5054731;28;20142;-57
2023/07/12 05:45:56;;;;;;;15.02;5.22;;;18.30;99.90;;;;;;5056233;28;20594;-59
2023/07/12 05:48:23;;;;;;;18.45;5.20;;;18.40;99.90;;;;;;5052776;28;20110;-57
2023/07/12 05:50:51;;;;;;;24.58;6.00;;;18.40;99.90;;;;;;5055599;28;20076;-57
2023/07/12 05:53:17;;;;;;;16.83;5.18;;;18.40;99.90;;;;;;5059881;28;20479;-56
2023/07/12 05:55:43;;;;;;;16.27;4.65;;;18.50;99.90;;;;;;5074697;28;20048;-57
2023/07/12 05:58:08;;;;;;;16.05;4.38;;;18.50;99.90;;;;;;5075488;28;20045;-57
2023/07/12 06:00:34;;;;;;;18.42;4.88;;;18.50;99.90;;;;;;5074094;28;20045;-57
2023/07/12 06:03:00;;;;;;;13.07;4.53;;;18.50;99.90;;;;;;5074539;28;20049;-57
2023/07/12 06:05:26;;;;;;;14.80;5.07;;;18.40;99.90;;;;;;5074290;28;20586;-57
2023/07/12 06:07:51;;;;;;;14.32;4.50;;;18.50;99.90;;;;;;5056917;28;20095;-58
2023/07/12 06:10:17;;;;;;;17.90;5.13;;;18.50;99.90;;;;;;5075060;28;20045;-57
2023/07/12 06:12:43;;;;;;;14.85;4.43;;;18.40;99.90;;;;;;5067812;28;20111;-57
2023/07/12 06:15:09;;;;;;;17.58;4.72;;;18.60;99.90;;;;;;5070075;28;20285;-58
2023/07/12 06:17:36;;;;;;;15.88;4.68;;;18.50;99.90;;;;;;5059413;28;20057;-58
2023/07/12 06:20:02;;;;;;;15.10;4.15;;;18.70;99.90;;;;;;5059351;28;20507;-58
2023/07/12 06:22:29;;;;;;;15.25;4.57;;;18.80;99.90;;;;;;5067281;28;20584;-57
2023/07/12 06:24:54;;;;;;;13.55;4.38;;;18.80;99.90;;;;;;5057061;28;20083;-58
2023/07/12 06:27:21;;;;;;;14.32;4.50;;;18.80;99.90;;;;;;5062454;28;20036;-57
2023/07/12 06:29:47;;;;;;;15.48;5.45;;;18.80;99.90;;;;;;5066848;28;20080;-58
2023/07/12 06:32:13;;;;;;;13.10;4.25;;;18.70;99.90;;;;;;5060266;28;20051;-57
2023/07/12 06:34:39;;;;;;;12.98;4.32;;;18.70;99.90;;;;;;5062415;28;20563;-58
2023/07/12 06:37:05;;;;;;;15.13;4.20;;;18.80;99.90;;;;;;5054872;28;20079;-57
2023/07/12 06:39:31;;;;;;;18.10;4.72;;;19.10;99.90;;;;;;5053698;28;20056;-58
2023/07/12 06:41:57;;;;;;;17.30;4.32;;;19.10;99.90;;;;;;5055312;28;20040;-58
2023/07/12 06:44:23;;;;;;;18.10;4.75;;;19.30;99.90;;;;;;5054348;28;20083;-57
2023/07/12 06:46:49;;;;;;;13.63;4.63;;;19.30;99.90;;;;;;5054604;28;20079;-57
2023/07/12 06:49:15;;;;;;;17.70;5.05;;;19.40;99.90;;;;;;5054206;28;20041;-57
2023/07/12 06:51:46;;;;;;;12.75;4.13;;;19.60;99.90;;;;;;5054092;28;20064;-58
2023/07/12 06:54:13;;;;;;;14.88;4.07;;;19.70;99.90;;;;;;5067415;28;20044;-57
2023/07/12 06:56:39;;;;;;;16.58;4.68;;;19.70;99.90;;;;;;5074010;28;20151;-64
2023/07/12 06:59:05;;;;;;;19.77;5.45;;;19.30;99.90;;;;;;5061031;28;20040;-67
2023/07/12 07:01:30;;;;;;;15.38;4.25;;;19.00;99.90;;;;;;5077793;28;20090;-63
2023/07/12 07:03:56;;;;;;;12.63;4.25;;;18.80;99.90;;;;;;5078423;28;20040;-61
2023/07/12 07:06:22;;;;;;;15.23;4.78;;;18.50;99.90;;;;;;5068387;28;20054;-59
2023/07/12 07:08:47;;;;;;;14.40;4.68;;;18.40;99.90;;;;;;5064948;28;20156;-59
2023/07/12 07:11:13;;;;;;;14.77;4.75;;;18.30;99.90;;;;;;5076365;28;20045;-58
2023/07/12 07:13:39;;;;;;;14.65;4.40;;;18.30;99.90;;;;;;5057453;28;20429;-58
2023/07/12 07:16:05;;;;;;;19.65;5.25;;;18.40;99.90;;;;;;5058435;28;20106;-59
2023/07/12 07:18:30;;;;;;;16.45;4.85;;;18.50;99.90;;;;;;5067863;28;20440;-58
2023/07/12 07:20:59;;;;;;;21.95;6.43;;;18.60;99.90;;;;;;5068968;28;20255;-59
2023/07/12 07:23:25;;;;;;;16.63;5.53;;;18.60;99.90;;;;;;5059101;28;20068;-59
2023/07/12 07:25:51;;;;;;;17.42;4.70;;;18.60;99.90;;;;;;5056142;28;20036;-58
2023/07/12 07:28:16;;;;;;;15.60;5.18;;;18.80;99.90;;;;;;5058550;28;20102;-58
2023/07/12 07:30:43;;;;;;;14.07;4.90;;;18.90;99.90;;;;;;5059279;28;20036;-58
2023/07/12 07:33:09;;;;;;;13.80;4.88;;;19.20;99.90;;;;;;5064373;28;20068;-59
2023/07/12 07:35:35;;;;;;;15.60;4.50;;;19.30;99.90;;;;;;5062817;28;20051;-58
2023/07/12 07:38:01;;;;;;;16.23;4.95;;;19.20;99.90;;;;;;5065873;28;20043;-59
2023/07/12 07:40:26;;;;;;;13.57;4.97;;;19.00;99.90;;;;;;5061439;28;20040;-59
2023/07/12 07:42:54;;;;;;;14.07;4.80;;;18.60;99.90;;;;;;5057492;28;20064;-59
2023/07/12 07:45:20;;;;;;;14.77;4.63;;;18.50;99.90;;;;;;5060481;28;20041;-59
2023/07/12 07:47:46;;;;;;;19.67;4.85;;;18.50;99.90;;;;;;5065827;28;20041;-59
2023/07/12 07:50:11;;;;;;;14.07;5.07;;;18.40;99.90;;;;;;5059815;28;20137;-59
2023/07/12 07:52:37;;;;;;;9.25;3.75;;;18.50;99.90;;;;;;5065707;28;20311;-58
2023/07/12 07:55:05;;;;;;;11.23;3.80;;;18.60;99.90;;;;;;5066811;28;20033;-59
2023/07/12 07:57:31;;;;;;;15.35;5.40;;;18.60;99.90;;;;;;5065133;28;20044;-58
2023/07/12 07:59:59;;;;;;;17.77;4.90;;;18.50;99.90;;;;;;5064717;28;20041;-59
2023/07/12 08:02:24;;;;;;;15.30;4.13;;;18.40;99.90;;;;;;5066098;28;20572;-59
2023/07/12 08:04:50;;;;;;;12.25;4.97;;;18.40;99.90;;;;;;5075746;28;20062;-59
2023/07/12 08:07:16;;;;;;;16.15;4.72;;;18.40;99.90;;;;;;5067163;28;20090;-58
2023/07/12 08:09:41;;;;;;;12.05;3.85;;;18.30;99.90;;;;;;5063389;28;20068;-58
2023/07/12 08:12:07;;;;;;;11.70;3.70;;;18.30;99.90;;;;;;5060949;28;20052;-58
2023/07/12 08:14:33;;;;;;;14.10;3.85;;;18.20;99.90;;;;;;5057579;28;20041;-58
2023/07/12 08:16:59;;;;;;;10.65;3.55;;;18.30;99.90;;;;;;5056925;28;20064;-58
2023/07/12 08:19:24;;;;;;;11.35;3.20;;;18.10;99.90;;;;;;5058053;28;20045;-58
2023/07/12 08:21:50;;;;;;;13.02;3.22;;;18.10;99.90;;;;;;5056858;28;20045;-58
2023/07/12 08:24:17;;;;;;;13.25;4.20;;;18.00;99.90;;;;;;5057863;28;20048;-58
2023/07/12 08:26:43;;;;;;;13.95;3.28;;;18.20;99.90;;;;;;5056686;28;20120;-59
2023/07/12 08:29:08;;;;;;;11.38;3.20;;;18.50;99.90;;;;;;5056155;28;20581;-59
2023/07/12 08:31:34;;;;;;;8.45;2.92;;;18.70;99.90;;;;;;5056782;28;20053;-59
2023/07/12 08:34:00;;;;;;;13.63;3.67;;;18.80;99.90;;;;;;5056875;28;20506;-59
2023/07/12 08:36:26;;;;;;;12.98;3.47;;;19.00;99.90;;;;;;5057331;28;20605;-58
2023/07/12 08:38:51;;;;;;;9.15;2.78;;;19.00;99.90;;;;;;5058005;28;20076;-59
2023/07/12 08:41:21;;;;;;;11.25;3.58;;;19.10;99.90;;;;;;5068051;28;20081;-59
2023/07/12 08:43:47;;;;;;;11.75;2.90;;;19.20;99.90;;;;;;5059107;28;20044;-58
2023/07/12 08:46:20;;;;;;;7.63;2.97;;;19.10;99.90;;;;;;5070601;28;20041;-58
2023/07/12 08:48:52;;;;;;;13.50;3.38;;;19.10;99.90;;;;;;5066194;28;20037;-58
2023/07/12 08:51:28;;;;;;;10.80;3.10;;;19.30;99.90;;;;;;5069087;28;20053;-58
2023/07/12 08:53:55;;;;;;;9.65;3.15;;;19.20;99.90;;;;;;5063506;28;20071;-58
2023/07/12 08:56:21;;;;;;;10.35;3.30;;;19.30;99.90;;;;;;5060142;28;20084;-58
2023/07/12 08:58:50;;;;;;;15.48;4.45;;;19.20;99.90;;;;;;5073247;28;20082;-58
2023/07/12 09:01:53;;;;;;;10.23;3.55;;;19.30;99.90;;;;;;5062964;28;20041;-58
2023/07/12 09:04:23;;;;;;;10.38;3.72;;;19.30;99.90;;;;;;5071302;28;20056;-58
2023/07/12 09:06:54;;;;;;;9.45;2.92;;;19.30;99.90;;;;;;5080668;28;20045;-59
2023/07/12 09:09:20;;;;;;;10.75;2.70;;;19.40;99.90;;;;;;5079531;28;20075;-58
2023/07/12 09:11:46;;;;;;;10.75;3.25;;;19.70;99.90;;;;;;5064333;28;20041;-59
2023/07/12 09:14:20;;;;;;;9.05;2.90;;;20.00;99.90;;;;;;5073660;28;20045;-59
2023/07/12 09:16:49;;;;;;;9.65;2.95;;;19.90;99.90;;;;;;5080340;28;20066;-58
2023/07/12 09:19:17;;;;;;;7.20;3.03;;;19.90;99.90;;;;;;5078211;28;20057;-58
2023/07/12 09:21:48;;;;;;;11.05;3.35;;;20.00;99.90;;;;;;5079227;28;20437;-59
2023/07/12 09:24:19;;;;;;;9.00;2.50;;;20.10;99.90;;;;;;5075952;28;20033;-58
2023/07/12 09:26:45;;;;;;;9.20;2.80;;;20.00;99.90;;;;;;5073027;28;20048;-58
2023/07/12 09:29:33;;;;;;;8.10;2.67;;;19.80;99.90;;;;;;5073725;28;20033;-59
2023/07/12 09:32:09;;;;;;;9.68;2.75;;;19.80;99.90;;;;;;5080286;28;20063;-58
2023/07/12 09:34:38;;;;;;;10.85;2.40;;;19.70;99.90;;;;;;5076749;28;20048;-59
2023/07/12 09:37:04;;;;;;;8.07;2.70;;;20.00;99.90;;;;;;5070115;28;20153;-58
2023/07/12 09:39:30;;;;;;;8.40;2.33;;;20.30;99.90;;;;;;5063944;28;20520;-59
2023/07/12 09:41:59;;;;;;;8.65;2.40;;;20.40;99.90;;;;;;5061001;28;20033;-59
2023/07/12 09:44:26;;;;;;;7.93;2.60;;;19.90;99.90;;;;;;5066586;28;20087;-59
2023/07/12 09:47:07;;;;;;;6.18;2.35;;;19.60;99.90;;;;;;5079138;28;20107;-60
2023/07/12 09:49:47;;;;;;;8.27;2.53;;;19.40;99.90;;;;;;5078761;28;20060;-59
2023/07/12 09:52:31;;;;;;;8.25;2.63;;;19.40;99.90;;;;;;5077384;28;20048;-59
2023/07/12 09:55:11;;;;;;;7.85;2.70;;;19.30;99.90;;;;;;5077059;28;20048;-57
2023/07/12 09:58:01;;;;;;;9.65;2.88;;;19.40;99.90;;;;;;5077706;28;20071;-59
2023/07/12 10:00:39;;;;;;;9.25;2.85;;;19.70;99.90;;;;;;5078372;28;20518;-58
2023/07/12 10:03:14;;;;;;;9.82;4.13;;;20.30;99.90;;;;;;5079607;28;20055;-59
2023/07/12 10:05:47;;;;;;;6.75;2.88;;;20.30;99.90;;;;;;5078801;28;20453;-59
2023/07/12 10:08:16;;;;;;;8.98;2.63;;;19.90;99.90;;;;;;5078620;28;20484;-59
2023/07/12 10:11:11;;;;;;;7.78;3.05;;;19.50;99.90;;;;;;5077813;28;20056;-59
2023/07/12 10:13:51;;;;;;;8.60;2.80;;;19.50;99.90;;;;;;5077645;28;20076;-59
2023/07/12 10:16:34;;;;;;;8.63;2.40;;;20.20;99.90;;;;;;5069122;28;20056;-58
2023/07/12 10:19:19;;;;;;;7.60;2.42;;;20.80;99.90;;;;;;5067096;28;20062;-59
2023/07/12 10:21:45;;;;;;;7.18;2.50;;;20.90;99.90;;;;;;5063395;28;20049;-59
2023/07/12 10:24:14;;;;;;;5.65;2.53;;;20.90;99.90;;;;;;5071297;28;20476;-59
2023/07/12 10:26:41;;;;;;;5.65;2.35;;;20.80;99.90;;;;;;5057251;28;20045;-59
2023/07/12 10:29:20;;;;;;;6.97;2.10;;;20.30;99.90;;;;;;5058206;28;20057;-59
2023/07/12 10:31:59;;;;;;;7.55;2.60;;;19.90;99.90;;;;;;5056591;28;20049;-59
2023/07/12 10:34:31;;;;;;;6.97;2.50;;;19.80;99.90;;;;;;5069868;28;20048;-58
2023/07/12 10:37:09;;;;;;;7.22;1.95;;;20.00;99.90;;;;;;5065017;28;20105;-58
2023/07/12 10:39:35;;;;;;;6.05;2.50;;;20.10;99.90;;;;;;5077782;28;20105;-59
2023/07/12 10:42:17;;;;;;;8.00;2.40;;;19.90;99.90;;;;;;5079125;28;20076;-58
2023/07/12 10:44:50;;;;;;;6.30;1.98;;;20.30;99.90;;;;;;5078902;28;20409;-59
2023/07/12 10:47:19;;;;;;;6.53;1.70;;;20.50;99.90;;;;;;5077693;28;20036;-59
2023/07/12 10:49:47;;;;;;;7.13;1.98;;;20.80;99.90;;;;;;5078176;28;20124;-59
2023/07/12 10:52:24;;;;;;;5.82;1.50;;;20.40;99.90;;;;;;5076794;28;20130;-59
2023/07/12 10:55:02;;;;;;;7.68;1.95;;;20.80;99.90;;;;;;5060309;28;20048;-59
2023/07/12 10:57:36;;;;;;;6.75;2.15;;;20.60;99.90;;;;;;5072314;28;20163;-59
2023/07/12 11:00:25;;;;;;;8.52;2.20;;;20.30;99.90;;;;;;5064770;28;20093;-58
2023/07/12 11:03:16;;;;;;;8.50;2.10;;;20.10;99.90;;;;;;5064698;28;20045;-58
2023/07/12 11:06:06;;;;;;;7.25;2.10;;;20.40;99.90;;;;;;5057733;28;20415;-58
2023/07/12 11:08:31;;;;;;;7.65;2.40;;;20.70;99.90;;;;;;5057600;28;20041;-58
2023/07/12 11:11:08;;;;;;;5.88;1.80;;;20.10;99.90;;;;;;5058444;28;20493;-59
2023/07/12 11:13:41;;;;;;;9.43;1.90;;;20.50;99.90;;;;;;5056571;28;20269;-58
2023/07/12 11:16:18;;;;;;;7.20;1.42;;;20.60;96.30;;;;;;5072873;28;20096;-58
2023/07/12 11:18:54;;;;;;;4.60;1.50;;;21.10;93.20;;;;;;5056342;28;20053;-59
2023/07/12 11:21:45;;;;;;;6.43;1.80;;;21.00;90.60;;;;;;5056611;28;20048;-59
2023/07/12 11:24:21;;;;;;;9.10;2.22;;;21.10;94.30;;;;;;5056649;28;20550;-58
2023/07/12 11:26:57;;;;;;;6.78;1.85;;;21.50;92.50;;;;;;5056807;28;20084;-58
2023/07/12 11:29:35;;;;;;;7.78;2.05;;;21.60;92.00;;;;;;5056595;28;20045;-59
2023/07/12 11:32:22;;;;;;;5.00;1.52;;;21.40;94.70;;;;;;5057973;28;20259;-58
2023/07/12 11:34:52;;;;;;;5.60;1.45;;;21.00;92.80;;;;;;5056531;28;20514;-58
2023/07/12 11:37:34;;;;;;;7.97;1.73;;;20.80;92.70;;;;;;5058107;28;20401;-58
2023/07/12 11:40:00;;;;;;;7.05;1.80;;;20.90;95.30;;;;;;5057320;28;20544;-59
2023/07/12 11:42:29;;;;;;;7.80;2.13;;;21.20;92.00;;;;;;5057648;28;20053;-59
2023/07/12 11:45:03;;;;;;;6.65;1.30;;;21.60;93.60;;;;;;5057918;28;20071;-59
2023/07/12 11:47:31;;;;;;;6.45;1.73;;;22.00;93.50;;;;;;5057104;28;20036;-59
2023/07/12 11:49:59;;;;;;;8.95;3.05;;;21.50;90.10;;;;;;5058180;28;20068;-59
2023/07/12 11:52:27;;;;;;;10.82;3.83;;;21.30;90.20;;;;;;5038861;28;20045;-59
2023/07/12 11:54:53;;;;;;;7.78;4.20;;;21.30;90.70;;;;;;5075604;28;20037;-59
2023/07/12 11:57:21;;;;;;;5.05;1.40;;;21.10;92.50;;;;;;5077351;28;20534;-58
2023/07/12 11:59:49;;;;;;;4.32;1.20;;;21.00;95.50;;;;;;5075599;28;20052;-58
2023/07/12 12:02:18;;;;;;;8.50;1.40;;;21.50;93.50;;;;;;5078171;28;20075;-57
2023/07/12 12:04:49;;;;;;;7.15;1.65;;;21.20;83.20;;;;;;5076816;28;20089;-58
2023/07/12 12:07:26;;;;;;;5.57;1.40;;;21.30;87.40;;;;;;5077742;28;20488;-58
2023/07/12 12:09:53;;;;;;;4.60;1.20;;;21.60;88.00;;;;;;5077144;28;20079;-58
2023/07/12 12:12:25;;;;;;;7.18;1.20;;;21.80;82.80;;;;;;5077405;28;20078;-58
2023/07/12 12:14:51;;;;;;;5.03;0.82;;;22.10;82.20;;;;;;5077225;28;20170;-58
2023/07/12 12:17:25;;;;;;;5.80;1.00;;;22.10;75.50;;;;;;5075566;28;20412;-58
2023/07/12 12:20:11;;;;;;;6.15;1.25;;;22.20;73.70;;;;;;5076177;28;20052;-58
2023/07/12 12:22:40;;;;;;;5.90;1.20;;;22.30;79.80;;;;;;5056723;28;20587;-58
2023/07/12 12:25:15;;;;;;;5.93;1.00;;;22.00;66.70;;;;;;5057055;28;20044;-56
2023/07/12 12:27:43;;;;;;;4.13;0.90;;;22.20;66.60;;;;;;5057506;28;20052;-58
2023/07/12 12:30:15;;;;;;;3.97;0.93;;;21.80;61.70;;;;;;5074904;28;20504;-59
2023/07/12 12:32:40;;;;;;;5.30;1.10;;;21.50;69.90;;;;;;5078878;28;20047;-57
2023/07/12 12:35:13;;;;;;;5.13;1.10;;;21.30;68.40;;;;;;5078907;28;20420;-58
2023/07/12 12:37:39;;;;;;;3.15;0.90;;;21.40;68.50;;;;;;5080945;28;20056;-58
2023/07/12 12:40:17;;;;;;;4.75;1.00;;;21.50;73.00;;;;;;5080611;28;20088;-58
2023/07/12 12:43:03;;;;;;;5.72;0.93;;;21.80;67.90;;;;;;5079127;28;20044;-58
2023/07/12 12:45:36;;;;;;;4.35;0.85;;;21.90;71.30;;;;;;5081220;28;20048;-59
2023/07/12 12:48:04;;;;;;;1.92;0.70;;;22.00;64.80;;;;;;5079909;28;20048;-58
2023/07/12 12:50:30;;;;;;;3.15;0.80;;;22.30;62.60;;;;;;5080917;28;20045;-59